Kissimmee Gateway Airport
KISM : now visible

Airfield :











YOU CAN JOIN US ON...

 
LOGIN :

Register | Disclaimer

   EN    FR    IT 

 









Legend :    VFR   Marginal VFR   IFR   Intensive IFR   Very Intensive IFR
Visi :
Ceiling :
>= 8 km
>= 3000ft
5 to 8 km
1000 to 3000 ft
1500m to 5 km
500 to 1000 ft
800 to 1500m
200 to 500 ft
< 800m
< 200 ft
Symbols :   Thunderstorms  Fog  Heavy snow  Heavy precipitations  Wind > 20 kt






- Airport Elevation : 82 ft


KISM - Kissimmee Gateway

CURRENT METAR :
  • 300833Z AUTO 30008KT 10SM SCT028 17/14 A2976 RMK AO2 PNO $

EXPIRED METARs :
  • 300808Z AUTO 30009KT 10SM BKN028 OVC036 18/14 A2976 RMK AO2 PNO $
  • 300756Z AUTO 30011KT 10SM BKN030 OVC036 18/14 A2976 RMK AO2 SLP076 T01780144 PNO $
  • 300656Z AUTO 30009KT 10SM CLR 18/14 A2976 RMK AO2 SLP079 T01780144 PNO $
  • 300556Z AUTO 31012KT 10SM FEW047 BKN100 18/14 A2977 RMK AO2 SLP080 6//// T01830144 10194 20183 56008 PNO $

TAF KISM
Valid from the 30 at 06:00 until the 01 at 06:00 UTC


300551Z 3006/0106 31012G19KT P6SM FEW024 BKN050
FM300900 31012KT P6SM SCT050
FM301300 30011KT P6SM SKC
FM010100 32005KT P6SM SKC
KZMA FIR / North America



MET'MAP, your aeronautical weather chart ! - Copyright ORBIFLY December 2007 - Disclaimer

ORBIFLY MET'MAP TEAM :

Programming & Development : Alexandra Zaïnal
Original concept : Baudouin d'Aumeries
Technical & hardware support : Manuel Goepfert
Assistance : Marc-Olivier Méhu




SOURCES & CREDITS :

   NOAA       Earth
Advisory